sensor_id;sensor_type;location;lat;lon;timestamp;pressure;altitude;pressure_sealevel;temperature;humidity
10060;BME280;5069;49.306;8.636;2024-02-28T00:00:09;100636.03;;;6.39;100.00
10060;BME280;5069;49.306;8.636;2024-02-28T00:03:12;100647.38;;;6.39;100.00
10060;BME280;5069;49.306;8.636;2024-02-28T00:06:16;100644.91;;;6.29;100.00
10060;BME280;5069;49.306;8.636;2024-02-28T00:09:17;100646.72;;;6.23;100.00
10060;BME280;5069;49.306;8.636;2024-02-28T00:12:20;100646.66;;;6.30;100.00
10060;BME280;5069;49.306;8.636;2024-02-28T00:15:22;100644.84;;;6.33;100.00
10060;BME280;5069;49.306;8.636;2024-02-28T00:18:23;100643.16;;;6.31;100.00
10060;BME280;5069;49.306;8.636;2024-02-28T00:21:25;100640.59;;;6.25;100.00
10060;BME280;5069;49.306;8.636;2024-02-28T00:24:26;100652.00;;;6.20;100.00
10060;BME280;5069;49.306;8.636;2024-02-28T00:27:28;100652.84;;;6.22;100.00
10060;BME280;5069;49.306;8.636;2024-02-28T00:30:29;100664.97;;;6.30;100.00
10060;BME280;5069;49.306;8.636;2024-02-28T00:33:31;100660.66;;;6.26;100.00
10060;BME280;5069;49.306;8.636;2024-02-28T00:36:32;100658.19;;;6.13;100.00
10060;BME280;5069;49.306;8.636;2024-02-28T00:39:49;100656.56;;;6.00;100.00
10060;BME280;5069;49.306;8.636;2024-02-28T00:42:51;100660.88;;;6.04;100.00
10060;BME280;5069;49.306;8.636;2024-02-28T00:45:53;100663.50;;;6.04;100.00
10060;BME280;5069;49.306;8.636;2024-02-28T00:48:56;100664.34;;;6.09;100.00
10060;BME280;5069;49.306;8.636;2024-02-28T00:51:58;100662.56;;;6.13;100.00
10060;BME280;5069;49.306;8.636;2024-02-28T00:55:00;100662.47;;;6.19;100.00
10060;BME280;5069;49.306;8.636;2024-02-28T00:58:01;100660.75;;;6.18;100.00
10060;BME280;5069;49.306;8.636;2024-02-28T01:01:03;100668.59;;;6.19;100.00
10060;BME280;5069;49.306;8.636;2024-02-28T01:04:04;100665.97;;;6.19;100.00
10060;BME280;5069;49.306;8.636;2024-02-28T01:07:06;100658.13;;;6.16;100.00
10060;BME280;5069;49.306;8.636;2024-02-28T01:10:07;100665.13;;;6.16;100.00
10060;BME280;5069;49.306;8.636;2024-02-28T01:13:09;100659.94;;;6.14;100.00
10060;BME280;5069;49.306;8.636;2024-02-28T01:16:10;100663.41;;;6.13;100.00
10060;BME280;5069;49.306;8.636;2024-02-28T01:19:12;100663.44;;;6.10;100.00
10060;BME280;5069;49.306;8.636;2024-02-28T01:22:13;100660.88;;;6.07;100.00
10060;BME280;5069;49.306;8.636;2024-02-28T01:25:15;100664.38;;;6.05;100.00
10060;BME280;5069;49.306;8.636;2024-02-28T01:28:16;100670.72;;;5.79;100.00
10060;BME280;5069;49.306;8.636;2024-02-28T01:31:18;100677.88;;;5.61;100.00
10060;BME280;5069;49.306;8.636;2024-02-28T01:34:19;100676.28;;;5.41;100.00
10060;BME280;5069;49.306;8.636;2024-02-28T01:37:21;100680.69;;;5.38;100.00
10060;BME280;5069;49.306;8.636;2024-02-28T01:40:22;100685.94;;;5.33;100.00
10060;BME280;5069;49.306;8.636;2024-02-28T01:43:24;100684.94;;;5.50;100.00
10060;BME280;5069;49.306;8.636;2024-02-28T01:46:27;100692.69;;;5.62;100.00
10060;BME280;5069;49.306;8.636;2024-02-28T01:49:29;100697.88;;;5.66;100.00
10060;BME280;5069;49.306;8.636;2024-02-28T01:52:30;100700.53;;;5.59;100.00
10060;BME280;5069;49.306;8.636;2024-02-28T01:55:32;100693.59;;;5.56;100.00
10060;BME280;5069;49.306;8.636;2024-02-28T01:58:34;100697.94;;;5.59;100.00
10060;BME280;5069;49.306;8.636;2024-02-28T02:01:36;100698.75;;;5.67;100.00
10060;BME280;5069;49.306;8.636;2024-02-28T02:04:38;100693.47;;;5.70;100.00
10060;BME280;5069;49.306;8.636;2024-02-28T02:07:40;100698.78;;;5.62;100.00
10060;BME280;5069;49.306;8.636;2024-02-28T02:10:42;100700.53;;;5.63;100.00
10060;BME280;5069;49.306;8.636;2024-02-28T02:13:50;100704.03;;;5.61;100.00
10060;BME280;5069;49.306;8.636;2024-02-28T02:16:52;100706.69;;;5.56;100.00
10060;BME280;5069;49.306;8.636;2024-02-28T02:19:54;100711.03;;;5.56;100.00
10060;BME280;5069;49.306;8.636;2024-02-28T02:22:55;100711.03;;;5.56;100.00
10060;BME280;5069;49.306;8.636;2024-02-28T02:25:57;100708.44;;;5.53;100.00
10060;BME280;5069;49.306;8.636;2024-02-28T02:28:59;100707.59;;;5.48;100.00
10060;BME280;5069;49.306;8.636;2024-02-28T02:32:00;100719.84;;;5.46;100.00
10060;BME280;5069;49.306;8.636;2024-02-28T02:35:02;100728.56;;;5.41;100.00
10060;BME280;5069;49.306;8.636;2024-02-28T02:38:03;100726.88;;;5.37;100.00
10060;BME280;5069;49.306;8.636;2024-02-28T02:41:05;100728.66;;;5.32;100.00
10060;BME280;5069;49.306;8.636;2024-02-28T02:44:09;100736.47;;;5.32;100.00
10060;BME280;5069;49.306;8.636;2024-02-28T02:47:11;100736.53;;;5.28;100.00
10060;BME280;5069;49.306;8.636;2024-02-28T02:50:12;100732.16;;;5.25;100.00
10060;BME280;5069;49.306;8.636;2024-02-28T02:53:14;100744.41;;;5.23;100.00
10060;BME280;5069;49.306;8.636;2024-02-28T02:56:15;100746.16;;;5.20;100.00
10060;BME280;5069;49.306;8.636;2024-02-28T02:59:17;100750.47;;;5.25;100.00
10060;BME280;5069;49.306;8.636;2024-02-28T03:02:18;100753.06;;;5.27;100.00
10060;BME280;5069;49.306;8.636;2024-02-28T03:05:20;100752.22;;;5.26;100.00
10060;BME280;5069;49.306;8.636;2024-02-28T03:08:21;100756.59;;;5.23;100.00
10060;BME280;5069;49.306;8.636;2024-02-28T03:11:23;100759.25;;;5.17;100.00
10060;BME280;5069;49.306;8.636;2024-02-28T03:14:25;100758.38;;;5.16;100.00
10060;BME280;5069;49.306;8.636;2024-02-28T03:17:29;100762.72;;;5.14;100.00
10060;BME280;5069;49.306;8.636;2024-02-28T03:20:30;100756.66;;;5.12;100.00
10060;BME280;5069;49.306;8.636;2024-02-28T03:23:32;100768.84;;;5.07;100.00
10060;BME280;5069;49.306;8.636;2024-02-28T03:26:34;100761.03;;;5.12;100.00
10060;BME280;5069;49.306;8.636;2024-02-28T03:29:35;100761.88;;;5.09;100.00
10060;BME280;5069;49.306;8.636;2024-02-28T03:32:37;100776.69;;;5.09;100.00
10060;BME280;5069;49.306;8.636;2024-02-28T03:35:38;100770.66;;;4.99;100.00
10060;BME280;5069;49.306;8.636;2024-02-28T03:38:40;100779.38;;;4.98;100.00
10060;BME280;5069;49.306;8.636;2024-02-28T03:41:42;100785.44;;;5.03;100.00
10060;BME280;5069;49.306;8.636;2024-02-28T03:44:44;100787.19;;;5.04;100.00
10060;BME280;5069;49.306;8.636;2024-02-28T03:47:45;100795.00;;;5.04;100.00
10060;BME280;5069;49.306;8.636;2024-02-28T03:50:47;100805.50;;;4.96;100.00
10060;BME280;5069;49.306;8.636;2024-02-28T03:53:48;100807.25;;;4.90;100.00
10060;BME280;5069;49.306;8.636;2024-02-28T03:56:50;100812.47;;;4.90;100.00
10060;BME280;5069;49.306;8.636;2024-02-28T03:59:51;100802.94;;;4.87;100.00
10060;BME280;5069;49.306;8.636;2024-02-28T04:02:52;100800.34;;;4.80;100.00
10060;BME280;5069;49.306;8.636;2024-02-28T04:05:54;100806.44;;;4.76;100.00
10060;BME280;5069;49.306;8.636;2024-02-28T04:08:55;100816.03;;;4.77;100.00
10060;BME280;5069;49.306;8.636;2024-02-28T04:11:57;100818.66;;;4.78;100.00
10060;BME280;5069;49.306;8.636;2024-02-28T04:14:58;100827.34;;;4.73;100.00
10060;BME280;5069;49.306;8.636;2024-02-28T04:18:00;100836.06;;;4.72;100.00
10060;BME280;5069;49.306;8.636;2024-02-28T04:21:02;100836.94;;;4.63;100.00
10060;BME280;5069;49.306;8.636;2024-02-28T04:24:07;100841.28;;;4.72;100.00
10060;BME280;5069;49.306;8.636;2024-02-28T04:27:08;100835.19;;;4.70;100.00
10060;BME280;5069;49.306;8.636;2024-02-28T04:30:13;100840.41;;;4.73;100.00
10060;BME280;5069;49.306;8.636;2024-02-28T04:33:14;100847.38;;;4.69;100.00
10060;BME280;5069;49.306;8.636;2024-02-28T04:36:16;100843.94;;;4.60;100.00
10060;BME280;5069;49.306;8.636;2024-02-28T04:39:17;100837.00;;;4.55;100.00
10060;BME280;5069;49.306;8.636;2024-02-28T04:42:19;100846.56;;;4.49;100.00
10060;BME280;5069;49.306;8.636;2024-02-28T04:45:20;100844.00;;;4.20;100.00
10060;BME280;5069;49.306;8.636;2024-02-28T04:48:22;100857.91;;;4.19;100.00
10060;BME280;5069;49.306;8.636;2024-02-28T04:51:24;100846.56;;;4.22;100.00
10060;BME280;5069;49.306;8.636;2024-02-28T04:54:25;100857.00;;;4.28;100.00
10060;BME280;5069;49.306;8.636;2024-02-28T04:57:27;100852.69;;;4.25;100.00
10060;BME280;5069;49.306;8.636;2024-02-28T05:00:28;100848.31;;;4.24;100.00
10060;BME280;5069;49.306;8.636;2024-02-28T05:03:30;100862.25;;;4.26;100.00
10060;BME280;5069;49.306;8.636;2024-02-28T05:06:32;100866.56;;;4.33;100.00
10060;BME280;5069;49.306;8.636;2024-02-28T05:09:33;100870.09;;;4.26;100.00
10060;BME280;5069;49.306;8.636;2024-02-28T05:12:35;100877.88;;;4.05;100.00
10060;BME280;5069;49.306;8.636;2024-02-28T05:15:37;100888.31;;;4.05;100.00
10060;BME280;5069;49.306;8.636;2024-02-28T05:18:39;100889.22;;;4.10;100.00
10060;BME280;5069;49.306;8.636;2024-02-28T05:21:41;100901.38;;;4.06;100.00
10060;BME280;5069;49.306;8.636;2024-02-28T05:24:45;100910.88;;;3.68;100.00
10060;BME280;5069;49.306;8.636;2024-02-28T05:27:47;100913.38;;;3.39;100.00
10060;BME280;5069;49.306;8.636;2024-02-28T05:30:49;100917.66;;;3.22;100.00
10060;BME280;5069;49.306;8.636;2024-02-28T05:33:52;100923.72;;;3.18;100.00
10060;BME280;5069;49.306;8.636;2024-02-28T05:36:55;100924.56;;;3.11;100.00
10060;BME280;5069;49.306;8.636;2024-02-28T05:39:57;100915.00;;;3.07;100.00
10060;BME280;5069;49.306;8.636;2024-02-28T05:42:58;100921.16;;;3.24;100.00
10060;BME280;5069;49.306;8.636;2024-02-28T05:46:00;100918.56;;;3.36;100.00
10060;BME280;5069;49.306;8.636;2024-02-28T05:49:02;100916.91;;;3.47;100.00
10060;BME280;5069;49.306;8.636;2024-02-28T05:52:04;100914.31;;;3.52;100.00
10060;BME280;5069;49.306;8.636;2024-02-28T05:55:06;100914.28;;;3.49;100.00
10060;BME280;5069;49.306;8.636;2024-02-28T05:58:07;100914.28;;;3.46;100.00
10060;BME280;5069;49.306;8.636;2024-02-28T06:01:15;100925.59;;;3.46;100.00
10060;BME280;5069;49.306;8.636;2024-02-28T06:04:17;100927.19;;;3.17;100.00
10060;BME280;5069;49.306;8.636;2024-02-28T06:07:18;100942.84;;;3.23;100.00
10060;BME280;5069;49.306;8.636;2024-02-28T06:10:20;100948.13;;;3.35;100.00
10060;BME280;5069;49.306;8.636;2024-02-28T06:13:22;100947.25;;;3.38;100.00
10060;BME280;5069;49.306;8.636;2024-02-28T06:16:24;100965.50;;;3.39;100.00
10060;BME280;5069;49.306;8.636;2024-02-28T06:19:25;100969.81;;;3.32;100.00
10060;BME280;5069;49.306;8.636;2024-02-28T06:22:27;100969.00;;;3.44;100.00
10060;BME280;5069;49.306;8.636;2024-02-28T06:25:28;100971.66;;;3.52;100.00
10060;BME280;5069;49.306;8.636;2024-02-28T06:28:30;100977.75;;;3.55;100.00
10060;BME280;5069;49.306;8.636;2024-02-28T06:31:33;100985.56;;;3.57;100.00
10060;BME280;5069;49.306;8.636;2024-02-28T06:34:35;100977.75;;;3.61;100.00
10060;BME280;5069;49.306;8.636;2024-02-28T06:37:36;100975.19;;;3.69;100.00
10060;BME280;5069;49.306;8.636;2024-02-28T06:40:38;100977.81;;;3.73;100.00
10060;BME280;5069;49.306;8.636;2024-02-28T06:43:40;100968.22;;;3.68;100.00
10060;BME280;5069;49.306;8.636;2024-02-28T06:46:41;100989.88;;;3.50;100.00
10060;BME280;5069;49.306;8.636;2024-02-28T06:49:43;100998.53;;;3.42;100.00
10060;BME280;5069;49.306;8.636;2024-02-28T06:52:45;100991.56;;;3.39;100.00
10060;BME280;5069;49.306;8.636;2024-02-28T06:55:46;100989.88;;;3.50;100.00
10060;BME280;5069;49.306;8.636;2024-02-28T06:58:49;100998.56;;;3.46;100.00
10060;BME280;5069;49.306;8.636;2024-02-28T07:01:51;101004.78;;;3.88;100.00
10060;BME280;5069;49.306;8.636;2024-02-28T07:04:53;100993.44;;;3.70;100.00
10060;BME280;5069;49.306;8.636;2024-02-28T07:07:54;101001.28;;;3.72;100.00
10060;BME280;5069;49.306;8.636;2024-02-28T07:10:56;101003.88;;;3.64;100.00
10060;BME280;5069;49.306;8.636;2024-02-28T07:13:57;101009.00;;;3.46;100.00
10060;BME280;5069;49.306;8.636;2024-02-28T07:17:03;101012.41;;;3.39;100.00
10060;BME280;5069;49.306;8.636;2024-02-28T07:20:05;101020.31;;;3.51;100.00
10060;BME280;5069;49.306;8.636;2024-02-28T07:23:07;101022.06;;;3.52;100.00
10060;BME280;5069;49.306;8.636;2024-02-28T07:26:08;101036.88;;;3.65;100.00
10060;BME280;5069;49.306;8.636;2024-02-28T07:29:23;101027.25;;;3.52;100.00
10060;BME280;5069;49.306;8.636;2024-02-28T07:32:24;101044.72;;;3.70;100.00
10060;BME280;5069;49.306;8.636;2024-02-28T07:35:26;101036.91;;;3.68;100.00
10060;BME280;5069;49.306;8.636;2024-02-28T07:38:27;101040.41;;;3.77;100.00
10060;BME280;5069;49.306;8.636;2024-02-28T07:41:29;101043.91;;;3.88;100.00
10060;BME280;5069;49.306;8.636;2024-02-28T07:44:31;101049.19;;;4.06;100.00
10060;BME280;5069;49.306;8.636;2024-02-28T07:47:32;101047.50;;;4.19;100.00
10060;BME280;5069;49.306;8.636;2024-02-28T07:50:34;101044.06;;;4.30;100.00
10060;BME280;5069;49.306;8.636;2024-02-28T07:53:35;101039.75;;;4.49;100.00
10060;BME280;5069;49.306;8.636;2024-02-28T07:56:37;101038.91;;;4.71;100.00
10060;BME280;5069;49.306;8.636;2024-02-28T07:59:39;101046.72;;;4.92;100.00
10060;BME280;5069;49.306;8.636;2024-02-28T08:02:41;101042.34;;;5.13;100.00
10060;BME280;5069;49.306;8.636;2024-02-28T08:05:43;101046.69;;;5.30;100.00
10060;BME280;5069;49.306;8.636;2024-02-28T08:08:45;101029.25;;;5.46;100.00
10060;BME280;5069;49.306;8.636;2024-02-28T08:11:50;101019.63;;;5.56;100.00
10060;BME280;5069;49.306;8.636;2024-02-28T08:14:51;101023.91;;;5.73;100.00
10060;BME280;5069;49.306;8.636;2024-02-28T08:17:53;101020.38;;;5.87;100.00
10060;BME280;5069;49.306;8.636;2024-02-28T08:20:55;101019.50;;;5.89;100.00
10060;BME280;5069;49.306;8.636;2024-02-28T08:23:58;101027.47;;;5.54;100.00
10060;BME280;5069;49.306;8.636;2024-02-28T08:27:00;101029.25;;;5.34;100.00
10060;BME280;5069;49.306;8.636;2024-02-28T08:30:03;101038.81;;;5.49;100.00
10060;BME280;5069;49.306;8.636;2024-02-28T08:33:06;101042.25;;;5.69;100.00
10060;BME280;5069;49.306;8.636;2024-02-28T08:36:09;101043.94;;;5.88;100.00
10060;BME280;5069;49.306;8.636;2024-02-28T08:39:10;101040.34;;;6.10;100.00
10060;BME280;5069;49.306;8.636;2024-02-28T08:42:12;101042.97;;;6.15;100.00
10060;BME280;5069;49.306;8.636;2024-02-28T08:45:14;101046.53;;;5.97;100.00
10060;BME280;5069;49.306;8.636;2024-02-28T08:48:15;101059.53;;;6.12;100.00
10060;BME280;5069;49.306;8.636;2024-02-28T08:51:17;101062.19;;;6.08;100.00
10060;BME280;5069;49.306;8.636;2024-02-28T08:54:19;101073.53;;;5.99;100.00
10060;BME280;5069;49.306;8.636;2024-02-28T08:57:20;101071.72;;;6.19;100.00
10060;BME280;5069;49.306;8.636;2024-02-28T09:00:23;101067.34;;;6.25;100.00
10060;BME280;5069;49.306;8.636;2024-02-28T09:03:25;101066.34;;;6.42;100.00
10060;BME280;5069;49.306;8.636;2024-02-28T09:06:27;101068.09;;;6.42;100.00
10060;BME280;5069;49.306;8.636;2024-02-28T09:09:28;101066.22;;;6.62;100.00
10060;BME280;5069;49.306;8.636;2024-02-28T09:12:31;101060.72;;;6.98;100.00
10060;BME280;5069;49.306;8.636;2024-02-28T09:15:34;101064.88;;;7.22;100.00
10060;BME280;5069;49.306;8.636;2024-02-28T09:18:36;101076.53;;;6.88;100.00
10060;BME280;5069;49.306;8.636;2024-02-28T09:21:38;101078.44;;;6.63;100.00
10060;BME280;5069;49.306;8.636;2024-02-28T09:24:39;101089.72;;;6.73;100.00
10060;BME280;5069;49.306;8.636;2024-02-28T09:27:41;101092.28;;;6.80;100.00
10060;BME280;5069;49.306;8.636;2024-02-28T09:30:42;101101.81;;;6.92;100.00
10060;BME280;5069;49.306;8.636;2024-02-28T09:33:53;101095.75;;;6.88;100.00
10060;BME280;5069;49.306;8.636;2024-02-28T09:36:55;101093.00;;;7.02;100.00
10060;BME280;5069;49.306;8.636;2024-02-28T09:39:57;101095.56;;;7.10;100.00
10060;BME280;5069;49.306;8.636;2024-02-28T09:43:02;101086.78;;;7.14;100.00
10060;BME280;5069;49.306;8.636;2024-02-28T09:46:05;101089.25;;;7.30;100.00
10060;BME280;5069;49.306;8.636;2024-02-28T09:49:07;101083.94;;;7.39;100.00
10060;BME280;5069;49.306;8.636;2024-02-28T09:52:10;101077.72;;;7.46;100.00
10060;BME280;5069;49.306;8.636;2024-02-28T09:55:12;101082.81;;;7.63;100.00
10060;BME280;5069;49.306;8.636;2024-02-28T09:58:14;101086.09;;;7.85;100.00
10060;BME280;5069;49.306;8.636;2024-02-28T10:01:19;101093.16;;;7.78;100.00
10060;BME280;5069;49.306;8.636;2024-02-28T10:04:24;101105.25;;;7.92;100.00
10060;BME280;5069;49.306;8.636;2024-02-28T10:07:27;101106.06;;;7.97;100.00
10060;BME280;5069;49.306;8.636;2024-02-28T10:10:28;101111.25;;;8.03;100.00
10060;BME280;5069;49.306;8.636;2024-02-28T10:13:30;101115.91;;;7.79;100.00
10060;BME280;5069;49.306;8.636;2024-02-28T10:16:31;101127.56;;;7.51;100.00
10060;BME280;5069;49.306;8.636;2024-02-28T10:19:33;101121.59;;;7.31;100.00
10060;BME280;5069;49.306;8.636;2024-02-28T10:22:38;101123.19;;;7.52;100.00
10060;BME280;5069;49.306;8.636;2024-02-28T10:25:46;101119.34;;;7.81;100.00
10060;BME280;5069;49.306;8.636;2024-02-28T10:28:58;101125.59;;;7.71;100.00
10060;BME280;5069;49.306;8.636;2024-02-28T10:31:59;101129.66;;;8.00;100.00
10060;BME280;5069;49.306;8.636;2024-02-28T10:35:01;101134.69;;;8.18;100.00
10060;BME280;5069;49.306;8.636;2024-02-28T10:38:03;101120.28;;;8.52;100.00
10060;BME280;5069;49.306;8.636;2024-02-28T10:41:05;101119.63;;;8.35;100.00
10060;BME280;5069;49.306;8.636;2024-02-28T10:44:12;101125.44;;;8.58;100.00
10060;BME280;5069;49.306;8.636;2024-02-28T10:47:14;101122.84;;;8.57;100.00
10060;BME280;5069;49.306;8.636;2024-02-28T10:50:16;101120.56;;;8.92;100.00
10060;BME280;5069;49.306;8.636;2024-02-28T10:53:22;101126.44;;;9.11;100.00
10060;BME280;5069;49.306;8.636;2024-02-28T10:56:28;101117.22;;;9.36;100.00
10060;BME280;5069;49.306;8.636;2024-02-28T10:59:32;101122.56;;;9.30;100.00
10060;BME280;5069;49.306;8.636;2024-02-28T11:02:37;101135.09;;;9.16;100.00
10060;BME280;5069;49.306;8.636;2024-02-28T11:05:39;101129.50;;;9.34;100.00
10060;BME280;5069;49.306;8.636;2024-02-28T11:08:46;101130.34;;;9.85;100.00
10060;BME280;5069;49.306;8.636;2024-02-28T11:11:50;101135.56;;;10.34;100.00
10060;BME280;5069;49.306;8.636;2024-02-28T11:15:03;101128.03;;;10.16;100.00
10060;BME280;5069;49.306;8.636;2024-02-28T11:18:07;101131.28;;;10.30;100.00
10060;BME280;5069;49.306;8.636;2024-02-28T11:21:16;101136.78;;;10.18;100.00
10060;BME280;5069;49.306;8.636;2024-02-28T11:24:18;101138.97;;;9.95;100.00
10060;BME280;5069;49.306;8.636;2024-02-28T11:27:20;101135.75;;;10.25;100.00
10060;BME280;5069;49.306;8.636;2024-02-28T11:30:21;101134.75;;;10.71;100.00
10060;BME280;5069;49.306;8.636;2024-02-28T11:33:23;101125.16;;;10.28;100.00
10060;BME280;5069;49.306;8.636;2024-02-28T11:36:24;101122.56;;;10.25;100.00
10060;BME280;5069;49.306;8.636;2024-02-28T11:39:26;101118.75;;;10.80;100.00
10060;BME280;5069;49.306;8.636;2024-02-28T11:42:28;101115.06;;;10.87;100.00
10060;BME280;5069;49.306;8.636;2024-02-28T11:45:30;101109.06;;;10.42;100.00
10060;BME280;5069;49.306;8.636;2024-02-28T11:48:32;101106.47;;;10.39;100.00
10060;BME280;5069;49.306;8.636;2024-02-28T11:51:34;101095.63;;;10.53;100.00
10060;BME280;5069;49.306;8.636;2024-02-28T11:54:36;101102.22;;;10.32;100.00
10060;BME280;5069;49.306;8.636;2024-02-28T11:57:38;101099.53;;;10.35;100.00
10060;BME280;5069;49.306;8.636;2024-02-28T12:00:47;101102.56;;;10.14;100.00
10060;BME280;5069;49.306;8.636;2024-02-28T12:03:50;101097.41;;;10.09;100.00
10060;BME280;5069;49.306;8.636;2024-02-28T12:06:52;101088.78;;;10.44;100.00
10060;BME280;5069;49.306;8.636;2024-02-28T12:09:54;101083.94;;;11.01;100.00
10060;BME280;5069;49.306;8.636;2024-02-28T12:12:59;101077.06;;;10.94;100.00
10060;BME280;5069;49.306;8.636;2024-02-28T12:16:01;101081.59;;;11.25;97.98
10060;BME280;5069;49.306;8.636;2024-02-28T12:19:04;101068.13;;;11.35;96.13
10060;BME280;5069;49.306;8.636;2024-02-28T12:22:06;101064.22;;;11.16;96.83
10060;BME280;5069;49.306;8.636;2024-02-28T12:25:09;101064.72;;;10.96;98.10
10060;BME280;5069;49.306;8.636;2024-02-28T12:28:11;101064.19;;;11.17;98.05
10060;BME280;5069;49.306;8.636;2024-02-28T12:31:13;101052.41;;;10.95;97.83
10060;BME280;5069;49.306;8.636;2024-02-28T12:34:14;101050.16;;;11.15;98.49
10060;BME280;5069;49.306;8.636;2024-02-28T12:37:16;101047.13;;;11.63;96.90
10060;BME280;5069;49.306;8.636;2024-02-28T12:40:18;101034.75;;;11.65;93.83
10060;BME280;5069;49.306;8.636;2024-02-28T12:43:19;101031.19;;;12.28;95.14
10060;BME280;5069;49.306;8.636;2024-02-28T12:46:21;101024.66;;;12.67;87.44
10060;BME280;5069;49.306;8.636;2024-02-28T12:49:22;101036.16;;;12.65;80.18
10060;BME280;5069;49.306;8.636;2024-02-28T12:52:24;101028.84;;;12.74;82.74
10060;BME280;5069;49.306;8.636;2024-02-28T12:55:25;101032.47;;;12.98;76.09
10060;BME280;5069;49.306;8.636;2024-02-28T12:58:27;101035.09;;;12.98;75.68
10060;BME280;5069;49.306;8.636;2024-02-28T13:01:28;101027.09;;;13.00;71.90
10060;BME280;5069;49.306;8.636;2024-02-28T13:04:30;101022.41;;;12.81;75.71
10060;BME280;5069;49.306;8.636;2024-02-28T13:07:31;101021.38;;;12.59;76.08
10060;BME280;5069;49.306;8.636;2024-02-28T13:10:33;101019.38;;;12.39;77.99
10060;BME280;5069;49.306;8.636;2024-02-28T13:13:40;101014.34;;;12.30;79.80
10060;BME280;5069;49.306;8.636;2024-02-28T13:16:42;101011.47;;;12.38;75.70
10060;BME280;5069;49.306;8.636;2024-02-28T13:19:43;101011.59;;;12.35;74.35
10060;BME280;5069;49.306;8.636;2024-02-28T13:22:45;101013.00;;;12.17;73.80
10060;BME280;5069;49.306;8.636;2024-02-28T13:25:47;101008.53;;;12.75;77.62
10060;BME280;5069;49.306;8.636;2024-02-28T13:28:48;101013.34;;;12.89;69.57
10060;BME280;5069;49.306;8.636;2024-02-28T13:31:54;101002.22;;;13.32;71.89
10060;BME280;5069;49.306;8.636;2024-02-28T13:34:56;101004.97;;;13.77;69.36
10060;BME280;5069;49.306;8.636;2024-02-28T13:37:57;100994.94;;;14.08;63.56
10060;BME280;5069;49.306;8.636;2024-02-28T13:41:03;100998.66;;;13.33;72.28
10060;BME280;5069;49.306;8.636;2024-02-28T13:44:05;100990.63;;;13.34;75.82
10060;BME280;5069;49.306;8.636;2024-02-28T13:47:06;100988.38;;;13.48;75.50
10060;BME280;5069;49.306;8.636;2024-02-28T13:50:08;100980.06;;;13.57;74.71
10060;BME280;5069;49.306;8.636;2024-02-28T13:53:12;100981.19;;;13.75;73.81
10060;BME280;5069;49.306;8.636;2024-02-28T13:56:13;100974.06;;;14.00;74.30
10060;BME280;5069;49.306;8.636;2024-02-28T13:59:15;100964.94;;;13.84;74.85
10060;BME280;5069;49.306;8.636;2024-02-28T14:02:16;100975.84;;;14.00;74.77
10060;BME280;5069;49.306;8.636;2024-02-28T14:05:19;100969.41;;;13.84;75.97
10060;BME280;5069;49.306;8.636;2024-02-28T14:08:20;100965.34;;;13.97;74.22
10060;BME280;5069;49.306;8.636;2024-02-28T14:11:23;100957.25;;;13.78;74.27
10060;BME280;5069;49.306;8.636;2024-02-28T14:14:25;100957.06;;;13.83;74.78
10060;BME280;5069;49.306;8.636;2024-02-28T14:17:26;100955.91;;;13.67;75.72
10060;BME280;5069;49.306;8.636;2024-02-28T14:20:28;100961.25;;;13.42;77.43
10060;BME280;5069;49.306;8.636;2024-02-28T14:23:30;100956.88;;;13.64;73.64
10060;BME280;5069;49.306;8.636;2024-02-28T14:26:32;100961.16;;;13.20;77.62
10060;BME280;5069;49.306;8.636;2024-02-28T14:29:33;100959.44;;;13.42;78.45
10060;BME280;5069;49.306;8.636;2024-02-28T14:32:35;100961.88;;;13.48;74.72
10060;BME280;5069;49.306;8.636;2024-02-28T14:35:37;100964.78;;;13.65;74.79
10060;BME280;5069;49.306;8.636;2024-02-28T14:38:40;100962.31;;;13.61;74.88
10060;BME280;5069;49.306;8.636;2024-02-28T14:41:45;100957.53;;;13.71;75.29
10060;BME280;5069;49.306;8.636;2024-02-28T14:44:46;100965.44;;;13.47;74.46
10060;BME280;5069;49.306;8.636;2024-02-28T14:47:48;100974.00;;;13.31;74.26
10060;BME280;5069;49.306;8.636;2024-02-28T14:50:49;100964.97;;;13.36;77.65
10060;BME280;5069;49.306;8.636;2024-02-28T14:53:51;100964.75;;;13.42;75.75
10060;BME280;5069;49.306;8.636;2024-02-28T14:56:52;100966.97;;;13.54;76.62
10060;BME280;5069;49.306;8.636;2024-02-28T14:59:54;100965.56;;;13.19;74.63
10060;BME280;5069;49.306;8.636;2024-02-28T15:02:55;100964.72;;;13.19;76.08
10060;BME280;5069;49.306;8.636;2024-02-28T15:05:57;100969.72;;;13.00;78.10
10060;BME280;5069;49.306;8.636;2024-02-28T15:08:59;100977.16;;;12.64;79.61
10060;BME280;5069;49.306;8.636;2024-02-28T15:12:00;100973.13;;;12.53;79.95
10060;BME280;5069;49.306;8.636;2024-02-28T15:15:03;100975.66;;;12.56;81.57
10060;BME280;5069;49.306;8.636;2024-02-28T15:18:06;100972.13;;;12.29;83.96
10060;BME280;5069;49.306;8.636;2024-02-28T15:21:07;100964.06;;;12.32;83.82
10060;BME280;5069;49.306;8.636;2024-02-28T15:24:09;100962.94;;;12.13;83.64
10060;BME280;5069;49.306;8.636;2024-02-28T15:27:11;100968.22;;;11.83;87.66
10060;BME280;5069;49.306;8.636;2024-02-28T15:30:12;100968.66;;;11.97;88.88
10060;BME280;5069;49.306;8.636;2024-02-28T15:33:14;100973.09;;;11.97;88.07
10060;BME280;5069;49.306;8.636;2024-02-28T15:36:16;100975.50;;;12.05;88.20
10060;BME280;5069;49.306;8.636;2024-02-28T15:39:17;100975.91;;;11.91;88.09
10060;BME280;5069;49.306;8.636;2024-02-28T15:42:19;100973.72;;;11.76;89.40
10060;BME280;5069;49.306;8.636;2024-02-28T15:45:20;100959.69;;;11.43;91.68
10060;BME280;5069;49.306;8.636;2024-02-28T15:48:22;100968.53;;;11.40;94.29
10060;BME280;5069;49.306;8.636;2024-02-28T15:51:24;100961.69;;;11.66;94.72
10060;BME280;5069;49.306;8.636;2024-02-28T15:54:26;100972.31;;;11.63;93.31
10060;BME280;5069;49.306;8.636;2024-02-28T15:57:28;100974.09;;;11.62;94.53
10060;BME280;5069;49.306;8.636;2024-02-28T16:00:30;100972.31;;;11.93;90.28
10060;BME280;5069;49.306;8.636;2024-02-28T16:03:31;100973.91;;;11.68;90.84